Tuesday, January 15, 2019, 6:53 PM EST
Back to Local

KFVE, Northern Aroostook Regional

Location: Saint Agatha, ME, United States Lat: 47.283
Local Time: 6:53 PM EST (23:53 GMT) Lon: -68.3
Time Zone: US/Eastern Elev: 987 ft

Show me the last for .
Show Coded

Time T Td Feel RH Dir Speed Gust Alt SLP Vis Weather Sky Remarks
2019-01-15 17:53 14 3 5 60 360° 6 - 29.96 30.01 10 CLR None
2019-01-15 16:53 15 4 3 60 320° 10 - 29.94 30.00 10 CLR None
2019-01-15 15:53 17 5 6 58 320° 9 - 29.94 29.99 10 FEW019 6-hr Precip Total (4pm): 0.00"
2019-01-15 14:53 19 5 6 53 320° 14 - 29.93 29.98 10 SCT023 None
2019-01-15 13:53 19 6 6 56 330° 13 - 29.92 29.97 10 BKN019 1-hr Precip Total: Trace
2019-01-15 12:53 19 7 6 58 330° 14 - 29.92 29.97 10 OVC024 6-hr Min Temp (1pm): 10.0°F
6-hr Max Temp (1pm): 19.0°F
2019-01-15 12:11 18 6 1 58 330° 13 23 29.92 - 10 BKN023 None
2019-01-15 11:53 19 6 4 56 320° 18 - 29.92 29.98 10 CLR None
2019-01-15 10:53 19 8 6 61 320° 14 - 29.95 30.00 10 FEW018 BKN036 None
2019-01-15 09:53 17 8 4 67 330° 12 - 29.96 30.01 10 OVC038 None
2019-01-15 08:53 11 5 -1 76 330° 8 - 29.95 30.01 10 BKN038 None
2019-01-15 07:53 12 6 -1 76 320° 10 - 29.95 30.00 10 CLR None
2019-01-15 06:53 11 5 0 76 330° 7 - 29.93 29.99 10 SCT011 BKN055 BKN070 6-hr Min Temp (7am): 9.0°F
6-hr Max Temp (7am): 12.0°F
2019-01-15 05:53 11 4 0 72 330° 7 - 29.92 29.98 10 OVC011 None
2019-01-15 05:21 10 3 0 72 320° 6 - 29.92 - 10 BKN012 BKN090 None
2019-01-15 04:53 9 2 -1 72 350° 6 - 29.92 29.97 10 FEW110 None
2019-01-15 03:53 11 4 3 72 330° 5 - 29.91 29.97 10 FEW044 None
2019-01-15 02:53 11 3 1 69 320° 6 - 29.92 29.98 10 OVC042 None
2019-01-15 01:53 11 3 5 69 320° 3 - 29.93 29.98 10 OVC045 None
2019-01-15 00:53 10 2 4 69 320° 3 - 29.93 29.99 10 OVC045 6-hr Min Temp (1am): 8.1°F
6-hr Max Temp (1am): 12.9°F
2019-01-14 23:53 11 2 5 66 220° 3 - 29.94 30.00 10 FEW022 OVC046 24-hr Min Temp (12am): -0.9°F
24-hr Max Temp (12am): 14.0°F
2019-01-14 23:38 11 3 5 69 200° 3 - 29.94 - 10 SCT022 OVC046 None
2019-01-14 23:28 11 2 - 66 - Calm - 29.95 - 10 BKN023 OVC045 None
2019-01-14 22:53 9 1 - 69 - Calm - 29.96 30.02 10 OVC047 None
2019-01-14 21:53 9 0 1 66 160° 5 - 29.96 30.03 10 FEW023 SCT047 None
2019-01-14 20:53 10 1 2 66 120° 5 - 29.97 30.03 10 CLR None
2019-01-14 19:53 11 2 5 66 100° 3 - 29.98 30.04 10 CLR None

Support USWX by starting your Amazon purchase here.